Time;durP1;ratioP1;P1;durP2;ratioP2;P2;SDS_P1;SDS_P2;PMS_P1;PMS_P2;Temp;Humidity;BMP_temperature;BMP_pressure;BME280_temperature;BME280_humidity;BME280_pressure;Samples;Min_cycle;Max_cycle;Signal;HPM_P1;HPM_P2
2021/08/24 00:01:41;;;;;;;;;7.33;6.33;;;;;;;;2565364;38;151247;-73
2021/08/24 00:04:09;;;;;;;;;8.00;8.00;;;;;;;;2566109;30;149742;-74
2021/08/24 00:06:38;;;;;;;;;8.33;7.33;;;;;;;;2568022;30;151336;-73
2021/08/24 00:09:07;;;;;;;;;8.00;8.00;;;;;;;;2569304;30;154096;-73
2021/08/24 00:11:36;;;;;;;;;8.00;8.00;;;;;;;;2566763;30;150174;-73
2021/08/24 00:14:08;;;;;;;;;5.75;4.75;;;;;;;;2570009;30;151473;-72
2021/08/24 00:16:41;;;;;;;;;7.00;7.00;;;;;;;;2570130;30;151213;-72
2021/08/24 00:19:10;;;;;;;;;9.00;8.00;;;;;;;;2564805;30;150615;-72
2021/08/24 00:21:38;;;;;;;;;9.33;8.00;;;;;;;;2565889;30;151014;-72
2021/08/24 00:24:08;;;;;;;;;9.00;9.00;;;;;;;;2566930;38;150733;-72
2021/08/24 00:26:36;;;;;;;;;10.33;7.67;;;;;;;;2564712;30;150762;-73
2021/08/24 00:29:07;;;;;;;;;7.67;7.67;;;;;;;;2565848;38;151809;-72
2021/08/24 00:31:36;;;;;;;;;7.33;7.33;;;;;;;;2566347;30;149339;-72
2021/08/24 00:34:04;;;;;;;;;4.33;3.33;;;;;;;;2565008;30;150748;-73
2021/08/24 00:36:32;;;;;;;;;7.33;6.00;;;;;;;;2567122;30;152395;-73
2021/08/24 00:39:01;;;;;;;;;7.67;7.00;;;;;;;;2565545;38;150694;-73
2021/08/24 00:41:30;;;;;;;;;8.00;8.00;;;;;;;;2564572;38;150894;-73
2021/08/24 00:43:58;;;;;;;;;8.00;8.00;;;;;;;;2566924;30;149362;-73
2021/08/24 00:46:34;;;;;;;;;9.00;8.00;;;;;;;;2565056;31;151430;-76
2021/08/24 00:49:03;;;;;;;;;7.33;7.33;;;;;;;;2565734;30;150943;-77
2021/08/24 00:51:32;;;;;;;;;7.67;7.67;;;;;;;;2564695;30;149424;-77
2021/08/24 00:54:01;;;;;;;;;8.00;8.00;;;;;;;;2564243;30;151339;-76
2021/08/24 00:56:31;;;;;;;;;7.25;6.50;;;;;;;;2570632;30;152419;-76
2021/08/24 00:59:00;;;;;;;;;7.00;7.00;;;;;;;;2570003;30;149470;-76
2021/08/24 01:01:28;;;;;;;;;12.33;8.00;;;;;;;;2565133;30;151286;-76
2021/08/24 01:04:01;;;;;;;;;7.50;7.00;;;;;;;;2565925;30;149540;-77
2021/08/24 01:06:37;;;;;;;;;8.50;7.75;;;;;;;;2564664;30;151499;-76
2021/08/24 01:09:16;;;;;;;;;8.00;7.00;;;;;;;;2563612;38;151234;-76
2021/08/24 01:11:49;;;;;;;;;7.00;7.00;;;;;;;;2564659;30;149543;-76
2021/08/24 01:14:22;;;;;;;;;9.50;8.25;;;;;;;;2568749;30;151364;-77
2021/08/24 01:16:55;;;;;;;;;8.00;8.00;;;;;;;;2566304;30;151280;-76
2021/08/24 01:19:47;;;;;;;;;7.50;7.25;;;;;;;;2565071;30;149412;-76
2021/08/24 01:22:36;;;;;;;;;11.00;9.25;;;;;;;;2567903;30;150755;-76
2021/08/24 01:25:06;;;;;;;;;11.75;11.00;;;;;;;;2565553;38;149492;-76
2021/08/24 01:27:36;;;;;;;;;8.00;8.00;;;;;;;;2566629;30;150646;-76
2021/08/24 01:30:15;;;;;;;;;10.75;8.75;;;;;;;;2566701;30;151950;-76
2021/08/24 01:33:01;;;;;;;;;9.50;8.50;;;;;;;;2565864;30;149715;-77
2021/08/24 01:35:47;;;;;;;;;10.50;9.00;;;;;;;;2568124;30;150482;-76
2021/08/24 01:38:20;;;;;;;;;13.00;8.25;;;;;;;;2564083;38;151439;-77
2021/08/24 01:40:51;;;;;;;;;8.00;7.25;;;;;;;;2567740;30;149538;-78
2021/08/24 01:43:23;;;;;;;;;8.00;8.00;;;;;;;;2567991;30;150731;-76
2021/08/24 01:45:54;;;;;;;;;10.25;8.00;;;;;;;;2570064;30;151451;-77
2021/08/24 01:48:25;;;;;;;;;8.00;8.00;;;;;;;;2564518;30;151730;-78
2021/08/24 01:50:56;;;;;;;;;8.00;8.00;;;;;;;;2566700;38;151869;-77
2021/08/24 01:53:32;;;;;;;;;11.00;9.00;;;;;;;;2565030;30;149451;-77
2021/08/24 01:56:04;;;;;;;;;8.75;7.75;;;;;;;;2566484;38;150759;-76
2021/08/24 01:58:35;;;;;;;;;7.75;7.00;;;;;;;;2566178;30;152340;-76
2021/08/24 02:01:06;;;;;;;;;7.50;7.00;;;;;;;;2565596;38;149282;-76
2021/08/24 02:03:37;;;;;;;;;7.00;7.00;;;;;;;;2565154;38;151445;-75
2021/08/24 02:06:12;;;;;;;;;8.00;8.00;;;;;;;;2564011;38;151230;-77
2021/08/24 02:08:49;;;;;;;;;8.75;7.25;;;;;;;;2567157;30;149519;-77
2021/08/24 02:11:17;;;;;;;;;9.50;8.75;;;;;;;;2566049;30;151773;-76
2021/08/24 02:13:48;;;;;;;;;6.75;6.75;;;;;;;;2568061;30;149666;-75
2021/08/24 02:16:19;;;;;;;;;8.00;8.00;;;;;;;;2568338;30;150644;-76
2021/08/24 02:18:51;;;;;;;;;7.00;7.00;;;;;;;;2564611;30;151931;-76
2021/08/24 02:21:22;;;;;;;;;8.75;8.50;;;;;;;;2567216;30;151233;-76
2021/08/24 02:23:56;;;;;;;;;8.00;8.00;;;;;;;;2564583;38;151190;-77
2021/08/24 02:26:27;;;;;;;;;4.50;2.50;;;;;;;;2566149;30;151089;-75
2021/08/24 02:28:57;;;;;;;;;5.00;5.00;;;;;;;;2568246;38;149455;-76
2021/08/24 02:31:30;;;;;;;;;5.00;5.00;;;;;;;;2571724;30;151522;-76
2021/08/24 02:34:02;;;;;;;;;8.50;7.75;;;;;;;;2566678;30;149318;-77
2021/08/24 02:36:33;;;;;;;;;8.00;8.00;;;;;;;;2565431;38;150625;-77
2021/08/24 02:39:06;;;;;;;;;10.75;10.50;;;;;;;;2565132;30;152298;-77
2021/08/24 02:41:39;;;;;;;;;10.75;9.00;;;;;;;;2569621;30;149543;-77
2021/08/24 02:44:11;;;;;;;;;8.50;7.50;;;;;;;;2569704;30;150606;-76
2021/08/24 02:46:42;;;;;;;;;11.00;9.75;;;;;;;;2567316;38;151941;-76
2021/08/24 02:49:12;;;;;;;;;10.00;8.00;;;;;;;;2566382;38;149219;-77
2021/08/24 02:51:40;;;;;;;;;9.00;7.00;;;;;;;;2567969;30;151373;-76
2021/08/24 02:54:15;;;;;;;;;10.25;9.75;;;;;;;;2565536;38;149740;-77
2021/08/24 02:56:43;;;;;;;;;8.75;7.75;;;;;;;;2565458;30;150684;-75
2021/08/24 02:59:11;;;;;;;;;9.00;9.00;;;;;;;;2565235;38;151028;-76
2021/08/24 03:01:40;;;;;;;;;9.25;8.75;;;;;;;;2568562;30;149450;-76
2021/08/24 03:04:09;;;;;;;;;11.25;9.25;;;;;;;;2566937;30;151067;-77
2021/08/24 03:06:40;;;;;;;;;7.25;7.00;;;;;;;;2571154;30;151936;-78
2021/08/24 03:09:08;;;;;;;;;9.00;8.00;;;;;;;;2572585;30;149659;-78
2021/08/24 03:11:42;;;;;;;;;8.75;8.75;;;;;;;;2570594;30;151601;-79
2021/08/24 03:14:14;;;;;;;;;9.75;7.75;;;;;;;;2569887;38;152259;-76
2021/08/24 03:16:45;;;;;;;;;10.00;8.50;;;;;;;;2566114;30;151898;-76
2021/08/24 03:19:14;;;;;;;;;9.50;9.00;;;;;;;;2571507;30;151320;-77
2021/08/24 03:21:43;;;;;;;;;10.50;8.25;;;;;;;;2564286;30;149328;-78
2021/08/24 03:24:15;;;;;;;;;8.00;8.00;;;;;;;;2570455;30;150688;-77
2021/08/24 03:26:48;;;;;;;;;8.50;7.00;;;;;;;;2566533;30;151031;-76
2021/08/24 03:29:18;;;;;;;;;10.75;10.25;;;;;;;;2564729;38;149968;-77
2021/08/24 03:31:50;;;;;;;;;8.00;6.25;;;;;;;;2569740;30;151672;-76
2021/08/24 03:34:18;;;;;;;;;9.25;8.00;;;;;;;;2564582;38;151088;-76
2021/08/24 03:36:46;;;;;;;;;8.75;8.50;;;;;;;;2567998;38;149814;-76
2021/08/24 03:39:14;;;;;;;;;7.75;6.50;;;;;;;;2567662;30;154165;-76
2021/08/24 03:41:43;;;;;;;;;9.00;9.00;;;;;;;;2569629;30;149241;-77
2021/08/24 03:44:14;;;;;;;;;8.00;8.00;;;;;;;;2569403;30;149966;-77
2021/08/24 03:46:42;;;;;;;;;9.00;8.00;;;;;;;;2565622;30;151354;-77
2021/08/24 03:49:10;;;;;;;;;10.00;9.00;;;;;;;;2568463;30;149583;-78
2021/08/24 03:51:39;;;;;;;;;9.00;7.75;;;;;;;;2569965;30;150859;-77
2021/08/24 03:54:07;;;;;;;;;9.00;8.25;;;;;;;;2565858;30;150986;-78
2021/08/24 03:56:36;;;;;;;;;8.25;7.75;;;;;;;;2564784;38;150170;-79
2021/08/24 03:59:04;;;;;;;;;8.25;8.25;;;;;;;;2570885;30;150624;-79
2021/08/24 04:01:35;;;;;;;;;9.75;8.00;;;;;;;;2566626;30;149692;-79
2021/08/24 04:04:03;;;;;;;;;9.50;9.50;;;;;;;;2569313;30;150825;-78
2021/08/24 04:06:33;;;;;;;;;9.00;9.00;;;;;;;;2568072;30;151968;-78
2021/08/24 04:09:01;;;;;;;;;10.00;9.00;;;;;;;;2564321;38;149792;-78
2021/08/24 04:11:30;;;;;;;;;10.25;7.75;;;;;;;;2567505;30;150679;-78
2021/08/24 04:13:58;;;;;;;;;7.50;7.50;;;;;;;;2566705;38;152018;-78
2021/08/24 04:16:26;;;;;;;;;8.25;8.25;;;;;;;;2568921;30;149455;-78
2021/08/24 04:18:57;;;;;;;;;8.25;7.50;;;;;;;;2565527;38;151737;-78
2021/08/24 04:21:25;;;;;;;;;8.25;8.25;;;;;;;;2570189;30;151496;-78
2021/08/24 04:23:54;;;;;;;;;9.75;9.75;;;;;;;;2567176;30;151197;-77
2021/08/24 04:26:22;;;;;;;;;9.00;7.50;;;;;;;;2567804;30;151999;-78
2021/08/24 04:28:50;;;;;;;;;8.50;8.50;;;;;;;;2563841;30;150931;-79
2021/08/24 04:31:19;;;;;;;;;9.75;9.75;;;;;;;;2565315;38;150676;-77
2021/08/24 04:33:47;;;;;;;;;9.75;9.75;;;;;;;;2566160;38;152144;-78
2021/08/24 04:36:18;;;;;;;;;9.00;7.75;;;;;;;;2568356;30;149927;-78
2021/08/24 04:38:47;;;;;;;;;9.00;7.00;;;;;;;;2569111;30;150474;-77
2021/08/24 04:41:15;;;;;;;;;8.00;8.00;;;;;;;;2566150;30;151212;-74
2021/08/24 04:43:43;;;;;;;;;9.25;9.25;;;;;;;;2568090;30;149356;-74
2021/08/24 04:46:12;;;;;;;;;8.75;8.75;;;;;;;;2567276;30;151153;-75
2021/08/24 04:48:40;;;;;;;;;10.50;9.00;;;;;;;;2568219;30;149491;-76
2021/08/24 04:51:08;;;;;;;;;10.00;8.75;;;;;;;;2567413;30;151091;-71
2021/08/24 04:53:39;;;;;;;;;7.75;7.00;;;;;;;;2566926;30;151041;-79
2021/08/24 04:56:08;;;;;;;;;13.00;9.75;;;;;;;;2566291;30;149466;-79
2021/08/24 04:58:36;;;;;;;;;10.00;10.00;;;;;;;;2567336;30;151430;-78
2021/08/24 05:01:04;;;;;;;;;8.00;8.00;;;;;;;;2564659;30;152114;-80
2021/08/24 05:03:33;;;;;;;;;7.00;7.00;;;;;;;;2570015;30;149413;-79
2021/08/24 05:06:01;;;;;;;;;9.00;9.00;;;;;;;;2565163;30;152222;-76
2021/08/24 05:08:30;;;;;;;;;9.50;9.50;;;;;;;;2564874;30;150128;-76
2021/08/24 05:11:01;;;;;;;;;9.00;9.00;;;;;;;;2564343;30;150943;-77
2021/08/24 05:13:29;;;;;;;;;8.75;7.25;;;;;;;;2565861;31;151376;-78
2021/08/24 05:16:00;;;;;;;;;11.25;9.50;;;;;;;;2568505;30;149266;-76
2021/08/24 05:18:29;;;;;;;;;8.50;8.00;;;;;;;;2565102;38;150800;-76
2021/08/24 05:21:03;;;;;;;;;9.75;7.75;;;;;;;;2567242;30;151590;-76
2021/08/24 05:23:31;;;;;;;;;9.50;8.00;;;;;;;;2567231;30;149635;-78
2021/08/24 05:26:03;;;;;;;;;9.67;7.67;;;;;;;;2569735;30;150381;-77
2021/08/24 05:28:31;;;;;;;;;8.67;8.00;;;;;;;;2565558;38;149874;-76
2021/08/24 05:30:59;;;;;;;;;8.25;7.75;;;;;;;;2565120;38;150631;-80
2021/08/24 05:33:28;;;;;;;;;11.00;9.00;;;;;;;;2565764;30;151490;-75
2021/08/24 05:35:56;;;;;;;;;9.50;9.00;;;;;;;;2568537;30;149515;-77
2021/08/24 05:38:24;;;;;;;;;8.50;8.50;;;;;;;;2567287;30;150641;-82
2021/08/24 05:40:54;;;;;;;;;11.00;10.00;;;;;;;;2568216;30;151057;-79
2021/08/24 05:43:25;;;;;;;;;7.75;7.75;;;;;;;;2564977;30;149728;-72
2021/08/24 05:45:56;;;;;;;;;9.25;9.25;;;;;;;;2564782;30;151292;-73
2021/08/24 05:48:25;;;;;;;;;22.25;21.50;;;;;;;;2566757;30;151895;-75
2021/08/24 05:50:54;;;;;;;;;13.50;11.75;;;;;;;;2564826;38;151655;-77
2021/08/24 05:53:35;;;;;;;;;10.00;10.00;;;;;;;;2563944;30;151799;-74
2021/08/24 05:56:09;;;;;;;;;11.50;9.00;;;;;;;;2566489;30;149500;-75
2021/08/24 05:58:40;;;;;;;;;13.00;11.75;;;;;;;;2563680;30;151614;-74
2021/08/24 06:01:09;;;;;;;;;12.00;10.50;;;;;;;;2565585;30;151257;-74
2021/08/24 06:03:38;;;;;;;;;13.00;10.50;;;;;;;;2563502;38;149713;-74
2021/08/24 06:06:06;;;;;;;;;9.25;9.25;;;;;;;;2568806;30;151527;-74
2021/08/24 06:08:35;;;;;;;;;7.50;7.50;;;;;;;;2563875;30;151901;-75
2021/08/24 06:11:03;;;;;;;;;10.25;9.00;;;;;;;;2569776;30;149578;-76
2021/08/24 06:13:32;;;;;;;;;12.00;11.00;;;;;;;;2564458;30;151934;-75
2021/08/24 06:16:03;;;;;;;;;10.00;9.50;;;;;;;;2563880;38;149505;-74
2021/08/24 06:18:35;;;;;;;;;9.00;8.75;;;;;;;;2563623;31;151349;-74
2021/08/24 06:21:03;;;;;;;;;10.75;10.75;;;;;;;;2565529;30;150996;-74
2021/08/24 06:23:32;;;;;;;;;11.50;10.00;;;;;;;;2567907;30;149366;-75
2021/08/24 06:26:00;;;;;;;;;10.00;9.00;;;;;;;;2564881;38;152524;-74
2021/08/24 06:28:28;;;;;;;;;9.50;8.50;;;;;;;;2565108;30;151364;-75
2021/08/24 06:30:59;;;;;;;;;9.75;8.00;;;;;;;;2564244;38;149578;-73
2021/08/24 06:33:32;;;;;;;;;9.00;8.00;;;;;;;;2567249;38;150781;-74
2021/08/24 06:36:01;;;;;;;;;10.00;10.00;;;;;;;;2564785;30;149552;-76
2021/08/24 06:38:29;;;;;;;;;10.25;9.75;;;;;;;;2567748;30;151509;-74
2021/08/24 06:40:58;;;;;;;;;9.25;8.50;;;;;;;;2563221;38;151271;-76
2021/08/24 06:43:26;;;;;;;;;6.25;6.25;;;;;;;;2567339;30;149639;-73
2021/08/24 06:45:54;;;;;;;;;4.75;4.75;;;;;;;;2563847;30;151662;-72
2021/08/24 06:48:23;;;;;;;;;5.50;4.00;;;;;;;;2567661;30;152280;-74
2021/08/24 06:50:54;;;;;;;;;6.00;5.00;;;;;;;;2569337;30;149300;-73
2021/08/24 06:53:22;;;;;;;;;5.67;4.00;;;;;;;;2569405;30;150611;-74
2021/08/24 06:55:51;;;;;;;;;9.00;4.00;;;;;;;;2569390;30;149539;-77
2021/08/24 06:58:19;;;;;;;;;4.33;4.00;;;;;;;;2565737;38;151449;-76
2021/08/24 07:00:48;;;;;;;;;5.67;4.00;;;;;;;;2563405;38;151923;-81
2021/08/24 07:03:18;;;;;;;;;8.33;5.00;;;;;;;;2562523;38;149951;-77
2021/08/24 07:05:49;;;;;;;;;3.33;3.33;;;;;;;;2564277;30;150705;-76
2021/08/24 07:08:21;;;;;;;;;4.00;4.00;;;;;;;;2563243;38;152437;-79
2021/08/24 07:10:49;;;;;;;;;4.00;4.00;;;;;;;;2568049;30;149568;-79
2021/08/24 07:13:18;;;;;;;;;4.33;4.33;;;;;;;;2564169;38;151344;-83
2021/08/24 07:15:47;;;;;;;;;3.00;2.67;;;;;;;;2570179;30;151175;-72
2021/08/24 07:18:15;;;;;;;;;3.33;3.00;;;;;;;;2564245;38;153806;-77
2021/08/24 07:20:43;;;;;;;;;3.00;3.00;;;;;;;;2566043;30;151771;-75
2021/08/24 07:23:12;;;;;;;;;5.00;3.00;;;;;;;;2564459;30;149592;-75
2021/08/24 07:25:42;;;;;;;;;3.00;3.00;;;;;;;;2567649;30;151372;-75
2021/08/24 07:28:11;;;;;;;;;3.33;2.67;;;;;;;;2565408;30;151164;-76
2021/08/24 07:30:40;;;;;;;;;2.00;2.00;;;;;;;;2568507;30;149335;-76
2021/08/24 07:33:08;;;;;;;;;2.00;2.00;;;;;;;;2565640;30;150560;-77
2021/08/24 07:35:37;;;;;;;;;2.33;2.33;;;;;;;;2565592;30;151232;-76
2021/08/24 07:38:05;;;;;;;;;3.00;2.00;;;;;;;;2567199;38;149501;-77
2021/08/24 07:40:34;;;;;;;;;2.33;2.33;;;;;;;;2568310;30;151962;-78
2021/08/24 07:43:05;;;;;;;;;2.00;2.00;;;;;;;;2565575;38;150523;-76
2021/08/24 07:45:33;;;;;;;;;1.33;1.00;;;;;;;;2565696;38;151324;-77
2021/08/24 07:48:02;;;;;;;;;2.67;2.00;;;;;;;;2565739;30;151968;-78
2021/08/24 07:50:30;;;;;;;;;2.33;2.00;;;;;;;;2565583;38;149460;-78
2021/08/24 07:52:58;;;;;;;;;3.33;1.33;;;;;;;;2566423;38;151985;-80
2021/08/24 07:55:27;;;;;;;;;1.00;1.00;;;;;;;;2562092;30;150992;-80
2021/08/24 07:57:55;;;;;;;;;3.00;3.00;;;;;;;;2564859;30;149782;-80
2021/08/24 08:00:26;;;;;;;;;5.00;5.00;;;;;;;;2569053;30;151587;-74
2021/08/24 08:02:54;;;;;;;;;2.00;2.00;;;;;;;;2566148;30;151018;-74
2021/08/24 08:05:23;;;;;;;;;2.67;2.67;;;;;;;;2568550;30;150547;-76
2021/08/24 08:07:53;;;;;;;;;0.00;0.00;;;;;;;;2564462;30;152525;-73
2021/08/24 08:10:21;;;;;;;;;1.00;1.00;;;;;;;;2567610;30;150223;-76
2021/08/24 08:12:49;;;;;;;;;1.00;1.00;;;;;;;;2564556;30;151751;-73
2021/08/24 08:15:18;;;;;;;;;1.33;1.33;;;;;;;;2567398;30;151147;-76
2021/08/24 08:17:49;;;;;;;;;1.00;1.00;;;;;;;;2564958;38;150427;-74
2021/08/24 08:20:18;;;;;;;;;2.00;2.00;;;;;;;;2565093;30;151355;-72
2021/08/24 08:22:49;;;;;;;;;1.00;1.00;;;;;;;;2568173;30;151975;-74
2021/08/24 08:25:17;;;;;;;;;0.00;0.00;;;;;;;;2568133;30;151680;-75
2021/08/24 08:27:45;;;;;;;;;0.67;0.67;;;;;;;;2566069;30;151971;-74
2021/08/24 08:30:14;;;;;;;;;1.50;1.50;;;;;;;;2569005;30;149596;-74
2021/08/24 08:32:43;;;;;;;;;1.00;1.00;;;;;;;;2568369;30;150792;-72
2021/08/24 08:35:16;;;;;;;;;15.00;15.00;;;;;;;;2566956;30;151660;-68
2021/08/24 08:37:44;;;;;;;;;1.00;1.00;;;;;;;;2566386;30;149832;-70
2021/08/24 08:40:13;;;;;;;;;4.00;1.75;;;;;;;;2566143;38;151846;-72
2021/08/24 08:42:50;;;;;;;;;2.00;1.00;;;;;;;;2563681;30;151901;-73
2021/08/24 08:45:20;;;;;;;;;5.00;4.00;;;;;;;;2568190;38;149479;-71
2021/08/24 08:47:55;;;;;;;;;1.00;1.00;;;;;;;;2567082;30;151783;-72
2021/08/24 08:50:30;;;;;;;;;4.00;3.00;;;;;;;;2564667;38;149612;-69
2021/08/24 08:53:03;;;;;;;;;1.25;1.00;;;;;;;;2566612;30;150679;-68
2021/08/24 08:55:33;;;;;;;;;2.25;2.00;;;;;;;;2564116;38;150952;-68
2021/08/24 08:58:06;;;;;;;;;1.50;1.00;;;;;;;;2566291;30;150067;-68
2021/08/24 09:00:42;;;;;;;;;0.75;0.75;;;;;;;;2565752;30;151126;-68
2021/08/24 09:03:13;;;;;;;;;2.00;1.00;;;;;;;;2566414;30;151239;-69
2021/08/24 09:05:45;;;;;;;;;1.25;1.25;;;;;;;;2569639;30;149824;-68
2021/08/24 09:08:13;;;;;;;;;1.00;1.00;;;;;;;;2563574;38;151290;-69
2021/08/24 09:10:43;;;;;;;;;1.00;1.00;;;;;;;;2563613;38;149716;-69
2021/08/24 09:13:16;;;;;;;;;0.00;0.00;;;;;;;;2564155;38;150775;-68
2021/08/24 09:15:46;;;;;;;;;1.00;1.00;;;;;;;;2564561;30;151871;-69
2021/08/24 09:18:17;;;;;;;;;1.00;1.00;;;;;;;;2566290;30;150502;-69
2021/08/24 09:20:57;;;;;;;;;2.00;0.00;;;;;;;;2564832;30;151252;-69
2021/08/24 09:23:25;;;;;;;;;1.00;1.00;;;;;;;;2562648;30;151801;-70
2021/08/24 09:26:00;;;;;;;;;0.25;0.25;;;;;;;;2564069;38;149484;-69
2021/08/24 09:28:30;;;;;;;;;0.50;0.00;;;;;;;;2570012;30;150618;-70
2021/08/24 09:30:59;;;;;;;;;0.00;0.00;;;;;;;;2564890;30;149985;-71
2021/08/24 09:33:28;;;;;;;;;0.25;0.00;;;;;;;;2565628;30;151396;-71
2021/08/24 09:36:00;;;;;;;;;1.00;1.00;;;;;;;;2565781;30;151672;-70
2021/08/24 09:38:30;;;;;;;;;1.00;1.00;;;;;;;;2564822;38;149410;-70
2021/08/24 09:40:59;;;;;;;;;2.00;1.00;;;;;;;;2565025;38;151459;-70
2021/08/24 09:43:31;;;;;;;;;0.50;0.50;;;;;;;;2563243;38;150825;-69
2021/08/24 09:46:01;;;;;;;;;0.00;0.00;;;;;;;;2564659;30;149695;-69
2021/08/24 09:48:31;;;;;;;;;0.00;0.00;;;;;;;;2567284;30;151396;-70
2021/08/24 09:51:14;;;;;;;;;1.00;1.00;;;;;;;;2567617;30;153102;-70
2021/08/24 09:53:45;;;;;;;;;1.00;1.00;;;;;;;;2566105;30;150629;-68
2021/08/24 09:56:15;;;;;;;;;1.00;1.00;;;;;;;;2567017;30;151107;-70
2021/08/24 09:58:47;;;;;;;;;1.00;1.00;;;;;;;;2565785;38;149555;-69
2021/08/24 10:01:16;;;;;;;;;1.00;1.00;;;;;;;;2565198;38;151314;-68
2021/08/24 10:03:45;;;;;;;;;2.00;2.00;;;;;;;;2566686;30;152374;-69
2021/08/24 10:06:25;;;;;;;;;1.00;1.00;;;;;;;;2565409;30;151633;-71
2021/08/24 10:08:57;;;;;;;;;0.00;0.00;;;;;;;;2565256;30;151637;-68
2021/08/24 10:11:28;;;;;;;;;1.00;1.00;;;;;;;;2564354;38;151105;-69
2021/08/24 10:14:10;;;;;;;;;1.00;1.00;;;;;;;;2566295;38;150399;-70
2021/08/24 10:16:40;;;;;;;;;1.50;1.25;;;;;;;;2567352;30;152207;-70
2021/08/24 10:19:10;;;;;;;;;0.25;0.25;;;;;;;;2566677;30;149583;-69
2021/08/24 10:21:40;;;;;;;;;1.25;0.00;;;;;;;;2568730;30;151592;-69
2021/08/24 10:24:11;;;;;;;;;0.25;0.25;;;;;;;;2565884;30;151817;-67
2021/08/24 10:26:40;;;;;;;;;0.00;0.00;;;;;;;;2566423;30;149769;-70
2021/08/24 10:29:11;;;;;;;;;0.00;0.00;;;;;;;;2568384;30;151488;-70
2021/08/24 10:31:41;;;;;;;;;1.33;1.00;;;;;;;;2567499;30;151904;-71
2021/08/24 10:34:12;;;;;;;;;0.33;0.00;;;;;;;;2566585;30;150105;-72
2021/08/24 10:36:42;;;;;;;;;1.75;0.25;;;;;;;;2566122;38;151780;-71
2021/08/24 10:39:27;;;;;;;;;0.00;0.00;;;;;;;;2563977;38;149293;-70
2021/08/24 10:42:04;;;;;;;;;0.00;0.00;;;;;;;;2564818;38;150903;-71
2021/08/24 10:44:33;;;;;;;;;1.00;1.00;;;;;;;;2567197;30;151980;-71
2021/08/24 10:47:06;;;;;;;;;1.00;1.00;;;;;;;;2564172;38;149992;-72
2021/08/24 10:49:35;;;;;;;;;0.33;0.33;;;;;;;;2564218;38;151693;-71
2021/08/24 10:52:09;;;;;;;;;0.00;0.00;;;;;;;;2566698;30;151534;-70
2021/08/24 10:54:47;;;;;;;;;1.00;0.00;;;;;;;;2563192;30;149850;-70
2021/08/24 10:57:23;;;;;;;;;2.00;1.00;;;;;;;;2564371;30;151399;-71
2021/08/24 10:59:56;;;;;;;;;1.00;1.00;;;;;;;;2570555;30;152046;-71
2021/08/24 11:02:31;;;;;;;;;1.00;1.00;;;;;;;;2564542;30;151483;-72
2021/08/24 11:05:09;;;;;;;;;0.67;0.67;;;;;;;;2563650;38;151329;-71
2021/08/24 11:07:42;;;;;;;;;0.00;0.00;;;;;;;;2563829;30;149347;-72
2021/08/24 11:10:21;;;;;;;;;1.00;1.00;;;;;;;;2565586;38;151754;-72
2021/08/24 11:13:01;;;;;;;;;0.00;0.00;;;;;;;;2565757;30;151918;-74
2021/08/24 11:15:39;;;;;;;;;0.00;0.00;;;;;;;;2564125;38;150129;-75
2021/08/24 11:18:12;;;;;;;;;1.00;0.00;;;;;;;;2566916;30;151325;-72
2021/08/24 11:20:42;;;;;;;;;0.00;0.00;;;;;;;;2570108;30;151160;-75
2021/08/24 11:23:16;;;;;;;;;0.00;0.00;;;;;;;;2570121;30;151483;-77
2021/08/24 11:25:49;;;;;;;;;1.00;0.00;;;;;;;;2563594;38;152146;-73
2021/08/24 11:28:25;;;;;;;;;2.00;0.00;;;;;;;;2565333;38;149638;-73
2021/08/24 11:30:57;;;;;;;;;0.00;0.00;;;;;;;;2566734;30;150642;-74
2021/08/24 11:33:28;;;;;;;;;0.33;0.00;;;;;;;;2563496;38;152109;-74
2021/08/24 11:35:58;;;;;;;;;0.00;0.00;;;;;;;;2564563;38;150765;-73
2021/08/24 11:38:29;;;;;;;;;0.00;0.00;;;;;;;;2566517;30;151424;-72
2021/08/24 11:41:02;;;;;;;;;0.33;0.00;;;;;;;;2567639;30;152151;-73
2021/08/24 11:43:34;;;;;;;;;2.00;2.00;;;;;;;;2570869;30;149401;-74
2021/08/24 11:46:05;;;;;;;;;0.00;0.00;;;;;;;;2568789;30;151169;-75
2021/08/24 11:48:36;;;;;;;;;0.00;0.00;;;;;;;;2570890;30;149345;-74
2021/08/24 11:51:07;;;;;;;;;2.00;1.00;;;;;;;;2567937;30;151473;-75
2021/08/24 11:53:40;;;;;;;;;0.00;0.00;;;;;;;;2566232;30;151801;-74
2021/08/24 11:56:14;;;;;;;;;0.00;0.00;;;;;;;;2564955;38;150476;-73
2021/08/24 11:58:45;;;;;;;;;0.00;0.00;;;;;;;;2565951;38;150794;-74
2021/08/24 12:01:15;;;;;;;;;0.00;0.00;;;;;;;;2565328;38;151945;-75
2021/08/24 12:03:49;;;;;;;;;1.00;0.00;;;;;;;;2568371;30;150355;-71
2021/08/24 12:06:23;;;;;;;;;1.00;0.00;;;;;;;;2568098;30;151440;-72
2021/08/24 12:08:53;;;;;;;;;1.00;1.00;;;;;;;;2564943;30;149502;-74
2021/08/24 12:11:26;;;;;;;;;0.33;0.33;;;;;;;;2566165;38;149520;-73
2021/08/24 12:13:55;;;;;;;;;0.00;0.00;;;;;;;;2566032;38;152109;-71
2021/08/24 12:16:31;;;;;;;;;1.00;1.00;;;;;;;;2565723;38;149513;-76
2021/08/24 12:19:14;;;;;;;;;0.00;0.00;;;;;;;;2567687;30;150463;-76
2021/08/24 12:21:48;;;;;;;;;1.00;1.00;;;;;;;;2560934;38;151211;-76
2021/08/24 12:24:31;;;;;;;;;2.00;0.67;;;;;;;;2562696;30;149852;-76
2021/08/24 12:27:14;;;;;;;;;0.00;0.00;;;;;;;;2562400;30;150905;-77
2021/08/24 12:30:06;;;;;;;;;0.00;0.00;;;;;;;;2567538;30;151218;-77
2021/08/24 12:32:50;;;;;;;;;0.00;0.00;;;;;;;;2562997;30;151058;-77
2021/08/24 12:35:19;;;;;;;;;0.00;0.00;;;;;;;;2565644;30;151322;-77
2021/08/24 12:37:53;;;;;;;;;1.00;0.00;;;;;;;;2567357;30;149626;-77
2021/08/24 12:40:39;;;;;;;;;0.67;0.67;;;;;;;;2564918;38;150899;-77
2021/08/24 12:43:24;;;;;;;;;0.00;0.00;;;;;;;;2566106;30;151935;-76
2021/08/24 12:46:08;;;;;;;;;1.67;0.33;;;;;;;;2566989;30;149651;-77
2021/08/24 12:48:39;;;;;;;;;0.00;0.00;;;;;;;;2565991;30;151561;-76
2021/08/24 12:51:09;;;;;;;;;0.00;0.00;;;;;;;;2565406;30;151568;-76
2021/08/24 12:53:46;;;;;;;;;1.00;0.00;;;;;;;;2569222;30;149631;-77
2021/08/24 12:56:35;;;;;;;;;0.67;0.67;;;;;;;;2565319;38;151192;-76
2021/08/24 12:59:04;;;;;;;;;1.00;1.00;;;;;;;;2568744;30;149554;-76
2021/08/24 13:01:33;;;;;;;;;0.00;0.00;;;;;;;;2564394;38;151373;-76
2021/08/24 13:04:08;;;;;;;;;0.67;0.67;;;;;;;;2565790;30;151448;-76
2021/08/24 13:06:37;;;;;;;;;0.00;0.00;;;;;;;;2562937;30;150236;-77
2021/08/24 13:09:20;;;;;;;;;0.33;0.33;;;;;;;;2565268;38;150932;-78
2021/08/24 13:12:04;;;;;;;;;0.67;0.67;;;;;;;;2564989;30;153308;-78
2021/08/24 13:14:43;;;;;;;;;2.00;2.00;;;;;;;;2564048;30;149510;-76
2021/08/24 13:17:12;;;;;;;;;2.00;1.00;;;;;;;;2566019;38;151575;-76
2021/08/24 13:19:43;;;;;;;;;0.00;0.00;;;;;;;;2565203;30;149456;-76
2021/08/24 13:22:20;;;;;;;;;1.00;1.00;;;;;;;;2565232;30;151700;-76
2021/08/24 13:24:52;;;;;;;;;2.00;1.00;;;;;;;;2566186;30;151179;-76
2021/08/24 13:27:26;;;;;;;;;2.00;1.00;;;;;;;;2564274;38;149381;-76
2021/08/24 13:29:55;;;;;;;;;0.00;0.00;;;;;;;;2565642;30;152080;-78
2021/08/24 13:32:28;;;;;;;;;0.67;0.67;;;;;;;;2563661;30;151105;-76
2021/08/24 13:35:00;;;;;;;;;1.00;0.00;;;;;;;;2564474;38;150452;-76
2021/08/24 13:37:35;;;;;;;;;1.00;1.00;;;;;;;;2567005;38;151611;-78
2021/08/24 13:40:06;;;;;;;;;0.00;0.00;;;;;;;;2569169;30;149487;-78
2021/08/24 13:42:37;;;;;;;;;1.67;0.33;;;;;;;;2567796;30;151805;-78
2021/08/24 13:45:07;;;;;;;;;1.00;1.00;;;;;;;;2565177;30;151893;-78
2021/08/24 13:47:35;;;;;;;;;1.00;1.00;;;;;;;;2563645;38;149422;-77
2021/08/24 13:50:07;;;;;;;;;1.00;0.00;;;;;;;;2564703;38;150682;-77
2021/08/24 13:52:37;;;;;;;;;0.00;0.00;;;;;;;;2565965;30;151206;-76
2021/08/24 13:55:06;;;;;;;;;1.00;0.67;;;;;;;;2565503;30;149484;-77
2021/08/24 13:57:35;;;;;;;;;0.33;0.33;;;;;;;;2564868;38;150656;-77
2021/08/24 14:00:06;;;;;;;;;0.00;0.00;;;;;;;;2570442;30;151222;-78
2021/08/24 14:02:36;;;;;;;;;0.00;0.00;;;;;;;;2568550;30;149599;-78
2021/08/24 14:05:07;;;;;;;;;0.00;0.00;;;;;;;;2564450;30;151259;-78
2021/08/24 14:07:39;;;;;;;;;0.00;0.00;;;;;;;;2565409;30;150434;-77
2021/08/24 14:10:16;;;;;;;;;1.00;1.00;;;;;;;;2564768;30;151410;-76
2021/08/24 14:12:50;;;;;;;;;0.00;0.00;;;;;;;;2565855;30;152026;-77
2021/08/24 14:15:24;;;;;;;;;0.67;0.67;;;;;;;;2567640;30;149157;-77
2021/08/24 14:17:55;;;;;;;;;1.00;1.00;;;;;;;;2564481;38;151489;-77
2021/08/24 14:20:29;;;;;;;;;0.33;0.33;;;;;;;;2564577;38;152076;-73
2021/08/24 14:22:59;;;;;;;;;1.00;1.00;;;;;;;;2569704;30;149926;-71
2021/08/24 14:25:29;;;;;;;;;1.67;0.33;;;;;;;;2566738;30;151215;-70
2021/08/24 14:27:58;;;;;;;;;1.00;1.00;;;;;;;;2569276;30;149801;-72
2021/08/24 14:30:26;;;;;;;;;1.00;1.00;;;;;;;;2566137;38;151324;-72
2021/08/24 14:32:55;;;;;;;;;1.00;1.00;;;;;;;;2567619;30;151110;-71
2021/08/24 14:35:38;;;;;;;;;2.00;2.00;;;;;;;;2568738;30;149379;-71
2021/08/24 14:38:10;;;;;;;;;2.00;2.00;;;;;;;;2567977;30;152871;-71
2021/08/24 14:40:39;;;;;;;;;0.00;0.00;;;;;;;;2567903;30;151081;-70
2021/08/24 14:43:08;;;;;;;;;3.00;2.00;;;;;;;;2566413;30;149831;-71
2021/08/24 14:45:38;;;;;;;;;7.00;4.00;;;;;;;;2567082;30;151280;-71
2021/08/24 14:48:07;;;;;;;;;2.00;2.00;;;;;;;;2568921;30;149229;-71
2021/08/24 14:50:37;;;;;;;;;0.00;0.00;;;;;;;;2567866;30;150775;-71
2021/08/24 14:53:07;;;;;;;;;2.00;0.00;;;;;;;;2564933;38;152135;-71